Time;durP1;ratioP1;P1;durP2;ratioP2;P2;SDS_P1;SDS_P2;PMS_P1;PMS_P2;Temp;Humidity;BMP_temperature;BMP_pressure;BME280_temperature;BME280_humidity;BME280_pressure;Samples;Min_cycle;Max_cycle;Signal;HPM_P1;HPM_P2
2022/06/07 00:00:52;;;;;;;10.38;5.25;;;12.40;99.90;;;;;;4949156;28;20078;-81
2022/06/07 00:03:19;;;;;;;9.48;5.28;;;12.80;99.90;;;;;;4968439;28;20078;-79
2022/06/07 00:05:45;;;;;;;7.55;5.63;;;12.60;99.90;;;;;;4951766;28;20042;-84
2022/06/07 00:08:12;;;;;;;8.27;5.25;;;11.90;99.90;;;;;;4967719;28;20110;-81
2022/06/07 00:10:38;;;;;;;9.15;5.57;;;11.90;99.90;;;;;;4954158;28;20430;-81
2022/06/07 00:13:04;;;;;;;15.07;5.63;;;11.80;99.90;;;;;;4950987;28;20077;-81
2022/06/07 00:15:30;;;;;;;9.38;5.72;;;11.80;99.90;;;;;;4953571;28;20074;-85
2022/06/07 00:17:55;;;;;;;8.25;5.40;;;13.20;99.90;;;;;;4965490;28;20498;-80
2022/06/07 00:20:22;;;;;;;9.63;6.18;;;11.80;99.90;;;;;;4969383;28;20050;-82
2022/06/07 00:22:48;;;;;;;10.73;6.25;;;11.80;99.90;;;;;;4954134;28;20054;-82
2022/06/07 00:25:15;;;;;;;9.65;6.72;;;13.00;99.90;;;;;;4968418;28;20577;-81
2022/06/07 00:27:42;;;;;;;11.95;6.18;;;12.00;99.90;;;;;;4970576;28;20085;-80
2022/06/07 00:30:09;;;;;;;13.85;6.80;;;12.30;99.90;;;;;;4961568;28;20113;-80
2022/06/07 00:32:36;;;;;;;9.50;6.93;;;11.80;99.90;;;;;;4971879;28;20057;-83
2022/06/07 00:35:02;;;;;;;11.85;7.30;;;13.40;99.90;;;;;;4969342;28;20491;-82
2022/06/07 00:37:28;;;;;;;12.15;8.48;;;11.70;99.90;;;;;;4954608;28;20046;-80
2022/06/07 00:39:53;;;;;;;8.60;7.70;;;11.80;99.90;;;;;;4965674;28;20055;-83
2022/06/07 00:42:19;;;;;;;16.35;8.23;;;11.80;99.90;;;;;;4971025;28;20069;-84
2022/06/07 00:44:46;;;;;;;11.40;9.30;;;13.10;99.90;;;;;;4966737;28;20047;-83
2022/06/07 00:47:19;;;;;;;10.88;8.15;;;11.80;99.90;;;;;;4970066;28;20043;-81
2022/06/07 00:49:53;;;;;;;14.50;8.63;;;11.80;99.90;;;;;;4948171;28;20454;-84
2022/06/07 00:52:21;;;;;;;13.98;8.45;;;12.80;99.90;;;;;;4984054;28;20446;-84
2022/06/07 00:54:47;;;;;;;13.88;8.10;;;11.80;99.90;;;;;;4969749;28;20125;-81
2022/06/07 00:57:13;;;;;;;12.88;8.18;;;11.80;99.90;;;;;;4949176;28;20146;-81
2022/06/07 00:59:39;;;;;;;11.30;7.85;;;12.20;99.90;;;;;;4954495;28;20078;-81
2022/06/07 01:02:05;;;;;;;11.45;7.68;;;12.50;99.90;;;;;;4964659;28;20102;-84
2022/06/07 01:04:32;;;;;;;12.20;7.93;;;11.90;99.90;;;;;;4970187;28;20034;-78
2022/06/07 01:12:27;;;;;;;13.68;7.75;;;11.60;99.90;;;;;;4963177;28;20075;-80
2022/06/07 01:14:53;;;;;;;12.07;8.68;;;11.80;99.90;;;;;;4970017;28;20039;-79
2022/06/07 01:17:20;;;;;;;11.20;8.57;;;11.80;99.90;;;;;;4966129;28;20475;-79
2022/06/07 01:19:47;;;;;;;14.05;7.75;;;11.80;99.90;;;;;;4967375;28;20046;-79
2022/06/07 01:22:13;;;;;;;16.08;9.00;;;11.90;99.90;;;;;;4967082;28;20047;-81
2022/06/07 01:24:40;;;;;;;11.45;7.57;;;11.90;99.90;;;;;;4967720;28;20045;-79
2022/06/07 01:27:07;;;;;;;10.40;7.30;;;12.00;99.90;;;;;;4945884;28;20094;-79
2022/06/07 01:29:33;;;;;;;12.30;8.57;;;12.00;99.90;;;;;;4964563;28;20059;-79
2022/06/07 01:31:59;;;;;;;11.05;7.57;;;12.00;99.90;;;;;;4952528;28;20078;-77
2022/06/07 01:34:26;;;;;;;11.23;8.00;;;12.60;99.90;;;;;;4969710;28;20078;-79
2022/06/07 01:36:54;;;;;;;11.80;7.35;;;12.10;99.90;;;;;;4968988;28;20089;-79
2022/06/07 01:42:05;;;;;;;12.57;7.90;;;12.50;99.90;;;;;;4968712;28;20125;-80
2022/06/07 01:44:42;;;;;;;19.65;8.25;;;12.00;99.90;;;;;;4965984;28;20122;-82
2022/06/07 01:47:11;;;;;;;10.05;7.55;;;11.00;99.90;;;;;;4967074;28;20058;-81
2022/06/07 01:49:38;;;;;;;12.13;7.80;;;12.00;99.90;;;;;;4948353;28;20523;-79
2022/06/07 01:52:04;;;;;;;15.02;8.43;;;12.10;99.90;;;;;;4950863;28;20499;-77
2022/06/07 01:54:30;;;;;;;11.60;7.65;;;12.00;99.90;;;;;;4952753;28;20045;-79
2022/06/07 01:56:56;;;;;;;12.18;8.30;;;12.10;99.90;;;;;;4964955;28;20047;-78
2022/06/07 01:59:22;;;;;;;12.35;8.20;;;11.80;99.90;;;;;;4962030;28;20465;-78
2022/06/07 02:01:49;;;;;;;13.38;8.07;;;12.10;99.90;;;;;;4964453;28;20078;-78
2022/06/07 02:04:15;;;;;;;13.43;8.05;;;12.00;99.90;;;;;;4967921;28;20046;-78
2022/06/07 02:06:41;;;;;;;9.75;6.35;;;12.10;99.90;;;;;;4965830;28;20187;-77
2022/06/07 02:09:09;;;;;;;13.68;7.93;;;13.60;99.90;;;;;;4968738;28;20573;-81
2022/06/07 02:11:37;;;;;;;13.52;9.57;;;12.10;99.90;;;;;;4964221;28;20039;-79
2022/06/07 02:14:04;;;;;;;13.35;8.65;;;12.20;99.90;;;;;;4964056;28;20109;-81
2022/06/07 02:16:30;;;;;;;14.82;8.43;;;13.30;99.90;;;;;;4952993;28;20041;-81
2022/06/07 02:18:56;;;;;;;10.48;7.40;;;12.20;99.90;;;;;;4965390;28;20058;-81
2022/06/07 02:21:22;;;;;;;19.00;8.70;;;12.20;99.90;;;;;;4967674;28;20038;-79
2022/06/07 02:23:49;;;;;;;17.25;8.10;;;12.40;99.90;;;;;;4963988;28;20057;-81
2022/06/07 02:26:21;;;;;;;11.43;7.55;;;13.60;99.90;;;;;;4968166;28;20089;-79
2022/06/07 02:29:05;;;;;;;14.27;8.93;;;12.20;99.90;;;;;;4962662;28;20048;-81
2022/06/07 02:31:32;;;;;;;12.73;9.15;;;12.20;99.90;;;;;;4983194;28;20126;-82
2022/06/07 02:34:00;;;;;;;10.45;7.22;;;12.50;99.90;;;;;;4951743;28;20035;-80
2022/06/07 02:36:28;;;;;;;12.23;8.57;;;13.80;99.90;;;;;;4963726;28;20039;-81
2022/06/07 02:38:54;;;;;;;13.77;9.15;;;11.10;99.90;;;;;;4949223;28;20046;-80
2022/06/07 02:41:23;;;;;;;12.35;7.95;;;12.50;99.90;;;;;;4952178;28;20126;-81
2022/06/07 02:43:49;;;;;;;13.40;8.85;;;12.30;99.90;;;;;;4947585;28;20101;-80
2022/06/07 02:46:14;;;;;;;14.80;9.18;;;12.50;99.90;;;;;;4968752;28;20360;-78
2022/06/07 02:48:40;;;;;;;11.82;7.80;;;13.30;99.90;;;;;;4964012;28;20046;-80
2022/06/07 02:51:06;;;;;;;14.43;9.07;;;12.50;99.90;;;;;;4965965;28;20318;-81
2022/06/07 02:53:32;;;;;;;10.50;7.38;;;13.30;99.90;;;;;;4965437;28;20036;-80
2022/06/07 02:55:58;;;;;;;17.75;9.20;;;13.20;99.90;;;;;;4966307;28;20170;-81
2022/06/07 02:58:25;;;;;;;17.92;9.00;;;12.20;99.90;;;;;;4965034;28;20085;-81
2022/06/07 03:00:50;;;;;;;11.63;8.63;;;13.10;99.90;;;;;;4967833;28;20498;-79
2022/06/07 03:03:17;;;;;;;10.82;7.93;;;12.20;99.90;;;;;;4962772;28;20114;-79
2022/06/07 03:05:42;;;;;;;13.48;8.57;;;12.30;99.90;;;;;;4968008;28;20225;-80
2022/06/07 03:08:08;;;;;;;14.75;8.55;;;12.30;99.90;;;;;;4946405;28;20133;-79
2022/06/07 03:10:35;;;;;;;16.45;8.60;;;12.30;99.90;;;;;;4967768;28;20260;-80
2022/06/07 03:13:01;;;;;;;13.02;8.85;;;12.80;99.90;;;;;;4962244;28;20051;-81
2022/06/07 03:15:28;;;;;;;12.20;9.30;;;12.40;99.90;;;;;;4965517;28;20062;-81
2022/06/07 03:17:54;;;;;;;13.93;9.48;;;13.40;99.90;;;;;;4968310;28;20043;-80
2022/06/07 03:20:20;;;;;;;16.63;9.65;;;12.30;99.90;;;;;;4947386;28;20047;-80
2022/06/07 03:22:46;;;;;;;14.10;8.65;;;12.30;99.90;;;;;;4968898;28;20513;-80
2022/06/07 03:25:12;;;;;;;21.73;9.10;;;12.30;99.90;;;;;;4960963;28;20046;-80
2022/06/07 03:27:38;;;;;;;15.13;8.43;;;12.50;99.90;;;;;;4969393;28;20046;-79
2022/06/07 03:30:07;;;;;;;12.50;8.05;;;12.40;99.90;;;;;;4962889;28;20058;-78
2022/06/07 03:32:33;;;;;;;14.80;8.15;;;12.40;99.90;;;;;;4966450;28;20050;-80
2022/06/07 03:34:59;;;;;;;14.02;9.02;;;13.50;99.90;;;;;;4968952;28;20047;-78
2022/06/07 03:37:25;;;;;;;12.73;9.45;;;13.30;99.90;;;;;;4963480;28;20043;-81
2022/06/07 03:39:54;;;;;;;9.55;8.30;;;12.70;99.90;;;;;;4965060;28;20053;-81
2022/06/07 03:42:19;;;;;;;15.07;8.73;;;12.40;99.90;;;;;;4964319;28;20166;-78
2022/06/07 03:44:48;;;;;;;12.00;7.53;;;14.00;99.90;;;;;;4966322;28;20122;-80
2022/06/07 03:47:15;;;;;;;12.85;8.30;;;12.50;99.90;;;;;;4966981;28;20418;-80
2022/06/07 03:49:41;;;;;;;10.57;7.68;;;13.40;99.90;;;;;;4947830;28;20049;-76
2022/06/07 03:52:06;;;;;;;12.02;6.63;;;12.50;99.90;;;;;;4968313;28;20035;-82
2022/06/07 03:54:32;;;;;;;8.77;7.63;;;13.10;99.90;;;;;;4964504;28;20050;-79
2022/06/07 03:56:58;;;;;;;11.80;6.80;;;13.40;99.90;;;;;;4966802;28;20186;-80
2022/06/07 03:59:24;;;;;;;13.30;7.10;;;12.60;99.90;;;;;;4963897;28;20047;-81
2022/06/07 04:01:50;;;;;;;9.65;6.50;;;12.60;99.90;;;;;;4966143;28;20116;-80
2022/06/07 04:04:16;;;;;;;15.07;7.20;;;14.00;99.90;;;;;;4967324;28;20046;-80
2022/06/07 04:08:10;;;;;;;13.68;6.88;;;12.80;99.90;;;;;;4963504;28;20450;-79
2022/06/07 04:09:30;;;;;;;11.63;7.15;;;12.60;99.90;;;;;;4968921;28;20057;-81
2022/06/07 04:11:56;;;;;;;10.63;5.45;;;12.40;99.90;;;;;;4963465;28;20118;-81
2022/06/07 04:14:22;;;;;;;7.80;4.35;;;12.70;99.90;;;;;;4965057;28;20457;-81
2022/06/07 04:16:47;;;;;;;9.10;3.92;;;12.50;99.90;;;;;;4962438;28;20518;-81
2022/06/07 04:19:13;;;;;;;7.35;3.38;;;12.50;99.90;;;;;;4948709;28;20058;-81
2022/06/07 04:21:39;;;;;;;7.35;3.85;;;12.40;99.90;;;;;;4968751;28;20035;-80
2022/06/07 04:24:14;;;;;;;10.10;4.50;;;12.40;99.90;;;;;;4963979;28;20046;-82
2022/06/07 04:26:43;;;;;;;10.18;4.20;;;12.30;99.90;;;;;;4963538;28;20063;-80
2022/06/07 04:29:08;;;;;;;10.45;5.47;;;12.70;99.90;;;;;;4966164;28;20124;-80
2022/06/07 04:31:34;;;;;;;7.93;3.80;;;12.80;99.90;;;;;;4983904;28;20051;-79
2022/06/07 04:34:00;;;;;;;10.60;5.35;;;12.20;99.90;;;;;;4967351;28;20632;-80
2022/06/07 04:36:27;;;;;;;10.75;5.18;;;11.90;99.90;;;;;;4951446;28;20050;-79
2022/06/07 04:38:54;;;;;;;21.95;5.20;;;13.20;99.90;;;;;;4968456;28;20162;-80
2022/06/07 04:41:22;;;;;;;13.63;5.13;;;12.50;99.90;;;;;;4967980;28;20607;-81
2022/06/07 04:43:49;;;;;;;10.40;4.75;;;11.30;99.90;;;;;;4967865;28;20039;-81
2022/06/07 04:46:14;;;;;;;6.60;4.25;;;11.90;99.90;;;;;;4965894;28;20530;-79
2022/06/07 04:48:42;;;;;;;6.65;4.22;;;13.10;99.90;;;;;;4968578;28;20498;-80
2022/06/07 04:51:11;;;;;;;9.98;3.83;;;12.90;99.90;;;;;;4954454;28;20059;-78
2022/06/07 04:53:37;;;;;;;8.93;4.70;;;12.00;99.90;;;;;;4950954;28;20101;-79
2022/06/07 04:56:11;;;;;;;6.60;4.93;;;12.00;99.90;;;;;;4968460;28;20101;-82
2022/06/07 04:58:40;;;;;;;19.13;6.43;;;11.90;99.90;;;;;;4976832;28;20071;-78
2022/06/07 05:01:18;;;;;;;7.13;4.90;;;12.70;99.90;;;;;;4964133;28;20041;-77
2022/06/07 05:03:44;;;;;;;9.27;5.95;;;12.10;99.90;;;;;;4967768;28;20042;-79
2022/06/07 05:06:19;;;;;;;14.90;7.07;;;13.20;99.90;;;;;;4965594;28;20121;-80
2022/06/07 05:08:45;;;;;;;9.63;6.63;;;13.20;99.90;;;;;;4951365;28;20047;-79
2022/06/07 05:11:11;;;;;;;10.27;6.78;;;11.90;99.90;;;;;;4953887;28;20055;-79
2022/06/07 05:13:36;;;;;;;15.90;7.20;;;11.90;99.90;;;;;;4950961;28;20050;-79
2022/06/07 05:16:03;;;;;;;13.93;8.05;;;12.00;99.90;;;;;;4969249;28;20162;-80
2022/06/07 05:18:29;;;;;;;13.52;6.22;;;11.90;99.90;;;;;;4966057;28;20368;-80
2022/06/07 05:20:54;;;;;;;16.88;7.53;;;12.50;99.90;;;;;;4978288;28;20065;-81
2022/06/07 05:23:20;;;;;;;12.90;6.60;;;12.00;99.90;;;;;;4952451;28;20077;-80
2022/06/07 05:25:56;;;;;;;10.40;6.57;;;13.00;99.90;;;;;;4965533;28;20094;-79
2022/06/07 05:28:22;;;;;;;11.98;6.57;;;12.00;99.90;;;;;;4967930;28;20392;-81
2022/06/07 05:30:48;;;;;;;10.18;5.93;;;12.00;99.90;;;;;;4969552;28;20499;-80
2022/06/07 05:33:13;;;;;;;11.90;5.75;;;12.30;99.90;;;;;;4967628;28;20057;-81
2022/06/07 05:35:39;;;;;;;9.38;5.57;;;12.10;99.90;;;;;;4971650;28;20089;-80
2022/06/07 05:38:04;;;;;;;9.13;5.55;;;13.30;99.90;;;;;;4950596;28;20093;-80
2022/06/07 05:40:30;;;;;;;11.38;5.47;;;12.10;99.90;;;;;;4969084;28;20054;-78
2022/06/07 05:42:57;;;;;;;9.15;4.30;;;12.10;99.90;;;;;;4982870;28;20058;-81
2022/06/07 05:45:22;;;;;;;7.35;4.03;;;12.90;99.90;;;;;;4951818;28;20458;-80
2022/06/07 05:47:48;;;;;;;8.32;2.95;;;12.30;99.90;;;;;;4969625;28;20365;-80
2022/06/07 05:50:13;;;;;;;9.32;3.78;;;13.00;99.90;;;;;;4951608;28;20042;-81
2022/06/07 05:52:42;;;;;;;6.82;3.53;;;12.70;99.90;;;;;;4965296;28;20375;-81
2022/06/07 05:55:09;;;;;;;8.30;2.80;;;12.10;99.90;;;;;;4968174;28;20054;-82
2022/06/07 05:57:34;;;;;;;9.77;3.33;;;12.20;99.90;;;;;;4953324;28;20027;-83
2022/06/07 06:00:01;;;;;;;8.00;2.85;;;12.10;99.90;;;;;;4965170;28;20517;-80
2022/06/07 06:02:27;;;;;;;7.22;3.33;;;12.80;99.90;;;;;;4968673;28;20035;-81
2022/06/07 06:04:55;;;;;;;4.53;2.65;;;13.10;99.90;;;;;;4966854;28;20096;-82
2022/06/07 06:07:20;;;;;;;5.40;2.40;;;12.60;99.90;;;;;;4969471;28;20089;-81
2022/06/07 06:12:31;;;;;;;5.35;1.85;;;13.10;99.90;;;;;;4967825;28;20125;-79
2022/06/07 06:14:57;;;;;;;8.30;2.50;;;12.20;99.90;;;;;;4969437;28;20483;-79
2022/06/07 06:17:23;;;;;;;4.93;2.13;;;12.10;99.90;;;;;;4965165;28;20100;-80
2022/06/07 06:19:49;;;;;;;4.00;2.33;;;12.70;99.90;;;;;;4952879;28;20402;-79
2022/06/07 06:22:14;;;;;;;8.95;3.13;;;13.40;99.90;;;;;;4963966;28;20185;-81
2022/06/07 06:24:41;;;;;;;4.60;2.63;;;11.90;99.90;;;;;;4967871;28;20125;-79
2022/06/07 06:27:06;;;;;;;5.57;2.88;;;11.80;99.90;;;;;;4965270;28;20035;-82
2022/06/07 06:29:32;;;;;;;5.38;2.40;;;13.40;99.90;;;;;;4965987;28;20056;-80
2022/06/07 06:31:58;;;;;;;4.07;2.03;;;11.80;99.90;;;;;;4981860;28;20053;-82
2022/06/07 06:34:29;;;;;;;3.97;2.05;;;11.80;99.90;;;;;;4965516;28;20042;-81
2022/06/07 06:36:58;;;;;;;4.93;2.00;;;12.80;99.90;;;;;;4965045;28;20042;-80
2022/06/07 06:39:24;;;;;;;5.20;1.83;;;11.70;99.90;;;;;;4951885;28;20058;-79
2022/06/07 06:41:49;;;;;;;5.00;1.63;;;11.70;99.90;;;;;;4960826;28;20046;-79
2022/06/07 06:44:15;;;;;;;3.70;1.08;;;11.70;99.90;;;;;;4968509;28;20039;-79
2022/06/07 06:46:44;;;;;;;4.47;1.15;;;12.70;99.90;;;;;;4950866;28;20535;-79
2022/06/07 06:49:12;;;;;;;4.85;1.20;;;12.40;99.90;;;;;;4964133;28;20510;-80
2022/06/07 06:51:38;;;;;;;7.60;1.02;;;11.60;99.90;;;;;;4965367;28;20035;-78
2022/06/07 06:54:04;;;;;;;2.80;1.58;;;11.60;99.90;;;;;;4964995;28;20105;-79
2022/06/07 06:56:31;;;;;;;6.85;1.27;;;11.60;99.90;;;;;;4967722;28;20061;-79
2022/06/07 06:58:57;;;;;;;5.22;1.20;;;11.50;99.90;;;;;;4945306;28;20039;-80
2022/06/07 07:01:27;;;;;;;6.35;1.30;;;12.80;99.90;;;;;;4952598;28;20105;-80
2022/06/07 07:03:54;;;;;;;5.35;1.02;;;11.60;99.90;;;;;;4963686;28;20499;-81
2022/06/07 07:06:20;;;;;;;5.85;1.05;;;11.60;99.90;;;;;;4950940;28;20457;-82
2022/06/07 07:08:47;;;;;;;6.13;1.42;;;11.60;99.90;;;;;;4949195;28;20039;-82
2022/06/07 07:11:33;;;;;;;6.85;1.50;;;11.50;99.90;;;;;;4921126;28;20081;-77
2022/06/07 07:13:59;;;;;;;6.72;1.10;;;11.70;99.90;;;;;;4960184;28;20051;-80
2022/06/07 07:16:28;;;;;;;7.35;1.20;;;11.60;99.90;;;;;;4966053;28;20427;-80
2022/06/07 07:18:54;;;;;;;7.78;1.30;;;13.00;99.90;;;;;;4968947;28;20050;-81
2022/06/07 07:21:26;;;;;;;6.18;1.08;;;11.60;99.90;;;;;;4965931;28;20035;-81
2022/06/07 07:23:52;;;;;;;4.68;1.42;;;11.60;99.90;;;;;;4953721;28;20053;-81
2022/06/07 07:26:24;;;;;;;8.48;1.65;;;11.70;99.90;;;;;;4964916;28;20039;-80
2022/06/07 07:28:52;;;;;;;6.50;1.15;;;13.00;99.90;;;;;;4964397;28;20477;-81
2022/06/07 07:31:21;;;;;;;7.93;1.90;;;11.80;99.90;;;;;;4966723;28;20058;-81
2022/06/07 07:33:47;;;;;;;10.55;1.88;;;12.90;99.90;;;;;;4964913;28;20051;-81
2022/06/07 07:36:13;;;;;;;10.45;1.30;;;11.90;99.90;;;;;;4963419;28;20046;-79
2022/06/07 07:38:40;;;;;;;7.40;1.77;;;13.60;99.90;;;;;;4951198;28;20097;-81
2022/06/07 07:41:22;;;;;;;11.50;2.10;;;12.00;99.90;;;;;;4981866;28;20047;-80
2022/06/07 07:43:49;;;;;;;4.82;1.40;;;12.10;99.90;;;;;;4967357;28;20082;-80
2022/06/07 07:46:16;;;;;;;3.42;1.30;;;12.20;99.90;;;;;;4949143;28;20054;-80
2022/06/07 07:48:42;;;;;;;6.50;1.42;;;12.20;99.90;;;;;;4967839;28;20031;-81
2022/06/07 07:51:13;;;;;;;5.50;1.27;;;12.70;99.90;;;;;;4951578;28;20495;-79
2022/06/07 07:53:38;;;;;;;6.25;1.45;;;12.30;99.90;;;;;;4964356;28;20122;-81
2022/06/07 07:56:09;;;;;;;7.47;1.52;;;13.80;99.90;;;;;;4980917;28;20447;-79
2022/06/07 07:58:35;;;;;;;10.82;2.42;;;12.40;99.90;;;;;;4948431;28;20039;-81
2022/06/07 08:01:07;;;;;;;5.38;1.42;;;12.50;99.90;;;;;;4969849;28;20093;-80
2022/06/07 08:03:33;;;;;;;9.95;1.65;;;13.60;99.90;;;;;;4965414;28;20593;-82
2022/06/07 08:05:59;;;;;;;3.83;1.60;;;12.70;99.90;;;;;;4985375;28;20121;-81
2022/06/07 08:08:24;;;;;;;5.15;1.58;;;12.80;99.90;;;;;;4986278;28;20035;-81
2022/06/07 08:10:50;;;;;;;4.60;1.88;;;13.10;99.90;;;;;;4971017;28;20580;-82
2022/06/07 08:13:16;;;;;;;8.90;1.58;;;12.70;99.90;;;;;;4971951;28;20138;-83
2022/06/07 08:15:43;;;;;;;5.40;2.05;;;13.80;99.90;;;;;;4965356;28;20043;-80
2022/06/07 08:18:09;;;;;;;4.95;1.55;;;12.80;99.90;;;;;;4971547;28;20045;-83
2022/06/07 08:20:37;;;;;;;11.00;2.28;;;13.40;99.90;;;;;;4969835;28;20047;-80
2022/06/07 08:23:07;;;;;;;3.80;1.42;;;13.30;99.90;;;;;;4971498;28;20031;-81
2022/06/07 08:25:34;;;;;;;8.80;1.80;;;13.00;99.90;;;;;;4949496;28;20053;-80
2022/06/07 08:28:02;;;;;;;11.85;2.58;;;13.00;99.90;;;;;;4969787;28;20035;-81
2022/06/07 08:30:28;;;;;;;6.85;1.90;;;14.20;99.90;;;;;;4973016;28;20054;-82
2022/06/07 08:32:53;;;;;;;8.38;1.55;;;13.10;99.90;;;;;;4983210;28;20051;-80
2022/06/07 08:38:06;;;;;;;8.70;1.42;;;14.40;99.90;;;;;;4971844;28;20058;-80
2022/06/07 08:40:43;;;;;;;8.25;1.60;;;14.30;99.90;;;;;;4968074;28;20042;-79
2022/06/07 08:43:18;;;;;;;6.97;1.40;;;13.00;99.90;;;;;;4971075;28;20376;-78
2022/06/07 08:45:47;;;;;;;7.53;1.55;;;13.20;99.90;;;;;;4950067;28;20042;-80
2022/06/07 08:48:26;;;;;;;7.07;1.83;;;13.10;99.90;;;;;;4952511;28;20306;-82
2022/06/07 08:51:07;;;;;;;9.30;2.22;;;13.20;99.90;;;;;;4965573;28;20038;-82
2022/06/07 08:53:37;;;;;;;15.25;1.73;;;13.10;99.90;;;;;;4967386;28;20051;-77
2022/06/07 08:56:08;;;;;;;11.70;1.95;;;13.30;99.90;;;;;;4970993;28;20049;-82
2022/06/07 08:58:39;;;;;;;7.30;1.58;;;13.20;99.90;;;;;;4968555;28;20050;-82
2022/06/07 09:01:27;;;;;;;9.23;1.50;;;13.60;99.90;;;;;;4947602;28;20039;-81
2022/06/07 09:04:09;;;;;;;7.13;1.48;;;13.20;99.90;;;;;;4964813;28;20407;-81
2022/06/07 09:06:38;;;;;;;6.45;1.30;;;13.30;99.90;;;;;;4970905;28;20050;-81
2022/06/07 09:09:05;;;;;;;6.82;1.67;;;13.60;99.90;;;;;;4964944;28;20693;-81
2022/06/07 09:14:25;;;;;;;15.60;4.72;;;13.50;99.90;;;;;;4983374;28;20099;-80
2022/06/07 09:16:54;;;;;;;8.77;1.08;;;13.90;99.90;;;;;;4969816;28;20042;-82
2022/06/07 09:19:26;;;;;;;5.88;0.90;;;13.60;99.90;;;;;;4950979;28;20035;-81
2022/06/07 09:21:55;;;;;;;4.03;1.02;;;13.80;99.90;;;;;;4970371;28;20043;-81
2022/06/07 09:24:37;;;;;;;11.05;1.52;;;15.10;99.90;;;;;;4951005;28;20047;-80
2022/06/07 09:27:15;;;;;;;11.15;1.23;;;13.80;99.90;;;;;;4966826;28;20406;-79
2022/06/07 09:29:42;;;;;;;6.75;1.27;;;13.90;99.90;;;;;;4964133;28;20055;-77
2022/06/07 09:32:17;;;;;;;9.00;1.25;;;13.90;99.90;;;;;;4983731;28;20039;-81
2022/06/07 09:35:05;;;;;;;8.13;1.63;;;14.00;99.90;;;;;;4968785;28;20051;-82
2022/06/07 09:37:39;;;;;;;6.65;1.60;;;14.00;99.90;;;;;;4982381;28;20039;-80
2022/06/07 09:40:32;;;;;;;8.43;2.42;;;14.70;99.90;;;;;;4967604;28;20047;-84
2022/06/07 09:43:01;;;;;;;11.55;1.92;;;13.90;99.90;;;;;;4951769;28;20050;-80
2022/06/07 09:45:30;;;;;;;7.35;1.52;;;13.90;99.90;;;;;;4950927;28;20046;-81
2022/06/07 09:47:57;;;;;;;6.78;1.35;;;13.80;99.90;;;;;;4952969;28;20046;-83
2022/06/07 09:50:33;;;;;;;7.22;1.23;;;13.70;99.90;;;;;;4969627;28;20051;-78
2022/06/07 09:53:08;;;;;;;10.77;1.23;;;13.70;99.90;;;;;;4970197;28;20074;-83
2022/06/07 09:56:04;;;;;;;11.40;1.92;;;13.70;99.90;;;;;;4948863;28;20086;-82
2022/06/07 09:59:14;;;;;;;5.88;1.10;;;13.60;99.90;;;;;;4968406;28;20073;-81
2022/06/07 10:02:06;;;;;;;8.38;2.10;;;13.50;99.90;;;;;;4965733;28;20078;-81
2022/06/07 10:05:10;;;;;;;12.20;2.78;;;13.70;99.90;;;;;;4968268;28;20368;-83
2022/06/07 10:07:56;;;;;;;7.32;1.20;;;14.50;99.90;;;;;;4933378;29;20134;-81
2022/06/07 10:10:34;;;;;;;8.75;1.45;;;13.50;99.90;;;;;;4942770;28;20035;-81
2022/06/07 10:13:25;;;;;;;11.30;1.85;;;13.50;99.90;;;;;;4940936;28;21613;-82
2022/06/07 10:16:04;;;;;;;7.93;1.70;;;13.50;99.90;;;;;;4982567;28;20047;-81
2022/06/07 10:18:52;;;;;;;9.30;1.33;;;13.60;99.90;;;;;;4970398;28;20051;-80
2022/06/07 10:21:47;;;;;;;9.63;1.52;;;13.70;99.90;;;;;;4968854;28;20122;-81
2022/06/07 10:24:31;;;;;;;7.80;1.65;;;13.80;99.90;;;;;;4948896;28;20054;-81
2022/06/07 10:27:14;;;;;;;8.63;1.40;;;13.80;99.90;;;;;;4966040;28;20058;-80
2022/06/07 10:30:04;;;;;;;12.07;1.35;;;14.50;99.90;;;;;;4966504;28;20530;-80
2022/06/07 10:32:35;;;;;;;6.78;1.40;;;13.90;99.90;;;;;;4983770;28;20047;-81
2022/06/07 10:35:23;;;;;;;8.25;1.98;;;14.80;99.90;;;;;;4968870;28;20058;-80
2022/06/07 10:38:26;;;;;;;9.52;1.45;;;14.00;99.90;;;;;;4965177;28;20054;-80
2022/06/07 10:41:17;;;;;;;9.68;1.75;;;14.00;99.90;;;;;;4968599;28;20113;-80
2022/06/07 10:43:46;;;;;;;10.02;1.13;;;14.00;99.90;;;;;;4966924;28;20081;-80
2022/06/07 10:46:15;;;;;;;8.80;1.92;;;15.30;99.90;;;;;;4984874;28;20550;-80
2022/06/07 10:48:49;;;;;;;11.43;1.50;;;14.60;99.90;;;;;;4967304;28;20118;-80
2022/06/07 10:54:26;;;;;;;13.45;2.45;;;13.90;99.90;;;;;;4966938;28;20123;-82
2022/06/07 10:57:08;;;;;;;5.82;1.25;;;13.40;99.90;;;;;;4973544;28;20089;-79
2022/06/07 10:59:39;;;;;;;9.30;1.73;;;13.90;99.90;;;;;;4950395;28;20074;-81
2022/06/07 11:02:13;;;;;;;8.52;1.38;;;14.90;99.90;;;;;;4985365;28;20047;-81
2022/06/07 11:10:39;;;;;;;8.30;1.10;;;13.80;99.90;;;;;;4965971;28;20062;-81
2022/06/07 11:13:32;;;;;;;8.43;1.10;;;13.80;99.90;;;;;;4968646;28;20051;-80
2022/06/07 11:16:06;;;;;;;5.32;1.10;;;13.80;99.90;;;;;;4966626;28;20082;-81
2022/06/07 11:18:32;;;;;;;5.63;1.45;;;13.90;99.90;;;;;;4949959;28;20507;-78
2022/06/07 11:21:01;;;;;;;9.02;1.40;;;14.00;99.90;;;;;;4966500;28;20150;-78
2022/06/07 11:23:36;;;;;;;6.45;1.23;;;14.50;99.90;;;;;;4963796;28;20050;-80
2022/06/07 11:26:14;;;;;;;5.35;1.38;;;13.90;99.90;;;;;;4966443;28;20118;-81
2022/06/07 11:28:39;;;;;;;5.25;1.00;;;14.00;99.90;;;;;;4964582;28;20077;-80
2022/06/07 11:31:23;;;;;;;4.18;0.80;;;15.70;99.90;;;;;;4973888;28;20485;-81
2022/06/07 11:33:52;;;;;;;2.83;0.90;;;14.20;99.90;;;;;;4969276;28;20162;-80
2022/06/07 11:36:20;;;;;;;7.38;1.20;;;14.20;99.90;;;;;;4969043;28;20282;-82
2022/06/07 11:38:58;;;;;;;5.93;0.63;;;14.20;99.90;;;;;;4961927;28;20082;-78
2022/06/07 11:41:38;;;;;;;7.22;0.85;;;14.30;99.90;;;;;;4969491;28;20073;-81
2022/06/07 11:44:10;;;;;;;3.45;0.68;;;14.30;99.90;;;;;;4987460;28;20517;-81
2022/06/07 11:46:40;;;;;;;7.95;0.88;;;15.60;99.90;;;;;;4972935;28;20047;-80
2022/06/07 11:49:19;;;;;;;8.18;0.93;;;14.30;99.90;;;;;;4952830;28;20054;-81
2022/06/07 11:52:13;;;;;;;11.70;1.75;;;15.60;99.90;;;;;;4971709;28;20051;-82
2022/06/07 11:54:50;;;;;;;10.38;1.27;;;14.50;99.90;;;;;;4953484;28;20034;-82
2022/06/07 11:57:28;;;;;;;12.93;1.65;;;15.00;99.90;;;;;;4959212;28;20054;-82
2022/06/07 11:59:57;;;;;;;6.90;1.42;;;14.40;99.90;;;;;;4969665;28;20051;-81
2022/06/07 12:02:27;;;;;;;10.93;1.23;;;14.70;99.90;;;;;;4962300;28;20046;-81
2022/06/07 12:05:07;;;;;;;9.18;1.13;;;15.80;99.90;;;;;;4955283;28;20263;-81
2022/06/07 12:08:11;;;;;;;10.05;1.95;;;14.60;99.90;;;;;;4951242;28;20050;-80
2022/06/07 12:10:39;;;;;;;9.23;1.55;;;14.70;99.90;;;;;;4967947;28;20061;-80
2022/06/07 12:16:13;;;;;;;10.45;1.45;;;14.90;99.90;;;;;;4967692;28;20513;-81
2022/06/07 12:18:38;;;;;;;7.97;1.60;;;14.40;99.90;;;;;;4971696;28;20043;-80
2022/06/07 12:21:15;;;;;;;9.45;1.50;;;16.20;99.90;;;;;;4986226;28;20049;-81
2022/06/07 12:23:50;;;;;;;8.40;1.85;;;14.80;99.90;;;;;;4971649;28;20038;-78
2022/06/07 12:26:20;;;;;;;8.63;1.45;;;14.80;99.90;;;;;;4952122;28;20122;-83
2022/06/07 12:28:52;;;;;;;7.18;1.23;;;14.80;99.90;;;;;;4951825;28;20082;-83
2022/06/07 12:31:29;;;;;;;6.53;1.10;;;14.80;99.90;;;;;;4986809;28;20197;-81
2022/06/07 12:33:57;;;;;;;10.05;1.40;;;14.80;99.90;;;;;;4969541;28;20035;-80
2022/06/07 12:36:29;;;;;;;5.63;1.15;;;14.70;99.90;;;;;;4972371;28;20697;-82
2022/06/07 12:38:58;;;;;;;9.23;1.50;;;14.70;99.90;;;;;;4966795;28;20039;-81
2022/06/07 12:41:26;;;;;;;8.55;1.40;;;15.70;99.90;;;;;;4951184;28;20050;-81
2022/06/07 12:43:58;;;;;;;5.55;1.40;;;14.70;99.90;;;;;;4964108;28;20050;-81
2022/06/07 12:46:25;;;;;;;7.97;1.15;;;14.70;99.90;;;;;;4969248;28;20117;-82
2022/06/07 12:48:51;;;;;;;3.22;1.33;;;14.80;99.90;;;;;;4948498;28;20043;-83
2022/06/07 12:51:26;;;;;;;7.53;1.25;;;15.90;99.90;;;;;;4968993;28;20363;-81
2022/06/07 12:54:01;;;;;;;7.45;1.50;;;15.20;99.90;;;;;;4970003;28;20130;-80
2022/06/07 12:56:29;;;;;;;9.73;1.17;;;15.10;99.90;;;;;;4965764;28;20331;-81
2022/06/07 12:58:57;;;;;;;7.57;1.25;;;14.90;99.90;;;;;;4971920;28;20039;-79
2022/06/07 13:01:39;;;;;;;4.25;1.00;;;15.20;99.90;;;;;;4952259;28;20173;-80
2022/06/07 13:04:46;;;;;;;8.00;1.10;;;15.30;99.90;;;;;;4969842;28;20133;-81
2022/06/07 13:07:22;;;;;;;5.32;1.60;;;15.10;99.90;;;;;;4927135;28;20097;-81
2022/06/07 13:09:53;;;;;;;7.03;1.35;;;15.00;99.90;;;;;;4967061;28;20038;-81
2022/06/07 13:12:26;;;;;;;5.85;1.38;;;15.70;99.90;;;;;;4971877;28;20093;-81
2022/06/07 13:14:55;;;;;;;5.32;1.35;;;15.10;99.90;;;;;;4966724;28;20134;-81
2022/06/07 13:17:34;;;;;;;7.65;1.30;;;16.40;99.90;;;;;;4971362;28;20069;-80
2022/06/07 13:20:01;;;;;;;7.63;1.45;;;16.40;99.90;;;;;;4968094;28;20335;-81
2022/06/07 13:22:30;;;;;;;3.83;0.95;;;15.90;99.90;;;;;;4968326;28;20039;-81
2022/06/07 13:25:15;;;;;;;9.52;1.30;;;16.60;99.90;;;;;;4954975;28;20110;-82
2022/06/07 13:27:51;;;;;;;6.22;1.10;;;15.50;99.90;;;;;;4979896;28;20093;-78